Scroggins, Texas
Current Conditions -  °F | °C
As of 2:55 AM on Saturday 22 Nov 2014 (Local Time) from KOSA Reporting Station
Overcast Overcast  
Wind Chill: 57°   Ceiling: 2600
Heat Index: 57°   Visibility: 10mi
Dew Point: 53°   Wind: 7mph
Humidity: 87%   Direction: 150°SSE
Pressure: 30.17"   Gusts: NA
Location:  33.07°N, 95.2°W
Report Text: KOSA 220855Z AUTO 15006KT 10SM BKN026 OVC042 14/12 A3017 RMK AO1 T01370116
Loading
Personal Weather Stations






























Interactive Weather Map New forecast layout! Learn more

10-Day Weather Forecast

Advertisements
Track Severe Weather on mobile